sensor_id;sensor_type;location;lat;lon;timestamp;pressure;altitude;pressure_sealevel;temperature;humidity
41830;BME280;38614;43.472;23.936;2023-04-07T00:02:15;99988.31;;;2.62;100.00
41830;BME280;38614;43.472;23.936;2023-04-07T00:05:04;99971.41;;;2.51;100.00
41830;BME280;38614;43.472;23.936;2023-04-07T00:07:52;99986.50;;;2.57;100.00
41830;BME280;38614;43.472;23.936;2023-04-07T00:10:43;99982.84;;;2.40;100.00
41830;BME280;38614;43.472;23.936;2023-04-07T00:13:34;99976.50;;;2.31;100.00
41830;BME280;38614;43.472;23.936;2023-04-07T00:16:22;99977.69;;;2.16;100.00
41830;BME280;38614;43.472;23.936;2023-04-07T00:19:10;99986.34;;;2.18;100.00
41830;BME280;38614;43.472;23.936;2023-04-07T00:21:58;99946.25;;;1.82;100.00
41830;BME280;38614;43.472;23.936;2023-04-07T00:24:45;99968.22;;;1.86;100.00
41830;BME280;38614;43.472;23.936;2023-04-07T00:27:33;99981.03;;;1.99;100.00
41830;BME280;38614;43.472;23.936;2023-04-07T00:30:23;99976.00;;;1.92;100.00
41830;BME280;38614;43.472;23.936;2023-04-07T00:33:14;99934.59;;;1.54;100.00
41830;BME280;38614;43.472;23.936;2023-04-07T00:36:10;99968.88;;;1.69;100.00
41830;BME280;38614;43.472;23.936;2023-04-07T00:39:00;99973.44;;;1.60;100.00
41830;BME280;38614;43.472;23.936;2023-04-07T00:41:48;99930.69;;;1.33;100.00
41830;BME280;38614;43.472;23.936;2023-04-07T00:44:36;99979.25;;;1.67;100.00
41830;BME280;38614;43.472;23.936;2023-04-07T00:47:24;99978.56;;;1.48;100.00
41830;BME280;38614;43.472;23.936;2023-04-07T00:50:12;99968.38;;;1.39;100.00
41830;BME280;38614;43.472;23.936;2023-04-07T00:52:59;99978.25;;;1.35;100.00
41830;BME280;38614;43.472;23.936;2023-04-07T00:55:49;99975.13;;;1.28;100.00
41830;BME280;38614;43.472;23.936;2023-04-07T00:58:37;99972.50;;;1.37;100.00
41830;BME280;38614;43.472;23.936;2023-04-07T01:01:31;99976.84;;;1.65;100.00
41830;BME280;38614;43.472;23.936;2023-04-07T01:07:34;99940.56;;;1.42;100.00
41830;BME280;38614;43.472;23.936;2023-04-07T01:10:47;99933.47;;;1.55;100.00
41830;BME280;38614;43.472;23.936;2023-04-07T01:13:51;99959.38;;;1.80;100.00
41830;BME280;38614;43.472;23.936;2023-04-07T01:17:01;99973.81;;;1.81;100.00
41830;BME280;38614;43.472;23.936;2023-04-07T01:22:46;99940.41;;;1.75;100.00
41830;BME280;38614;43.472;23.936;2023-04-07T01:32:25;99966.16;;;2.19;100.00
41830;BME280;38614;43.472;23.936;2023-04-07T01:35:26;99965.53;;;2.22;100.00
41830;BME280;38614;43.472;23.936;2023-04-07T01:38:16;99958.97;;;2.23;100.00
41830;BME280;38614;43.472;23.936;2023-04-07T01:41:05;99968.66;;;2.29;100.00
41830;BME280;38614;43.472;23.936;2023-04-07T01:43:55;99958.38;;;2.12;100.00
41830;BME280;38614;43.472;23.936;2023-04-07T01:46:44;99955.25;;;2.19;100.00
41830;BME280;38614;43.472;23.936;2023-04-07T01:49:32;99981.41;;;2.20;100.00
41830;BME280;38614;43.472;23.936;2023-04-07T01:52:22;99894.38;;;1.87;100.00
41830;BME280;38614;43.472;23.936;2023-04-07T01:55:10;99930.16;;;2.31;100.00
41830;BME280;38614;43.472;23.936;2023-04-07T01:58:06;99963.94;;;2.66;100.00
41830;BME280;38614;43.472;23.936;2023-04-07T02:00:57;99951.53;;;2.60;100.00
41830;BME280;38614;43.472;23.936;2023-04-07T02:06:53;99952.34;;;2.60;100.00
41830;BME280;38614;43.472;23.936;2023-04-07T02:09:53;99954.59;;;2.58;100.00
41830;BME280;38614;43.472;23.936;2023-04-07T02:12:45;99957.75;;;2.74;100.00
41830;BME280;38614;43.472;23.936;2023-04-07T02:15:39;99957.31;;;2.80;100.00
41830;BME280;38614;43.472;23.936;2023-04-07T02:18:29;99960.09;;;2.89;100.00
41830;BME280;38614;43.472;23.936;2023-04-07T02:21:18;99975.34;;;2.90;100.00
41830;BME280;38614;43.472;23.936;2023-04-07T02:24:10;99961.25;;;2.97;100.00
41830;BME280;38614;43.472;23.936;2023-04-07T02:26:58;99968.88;;;3.08;100.00
41830;BME280;38614;43.472;23.936;2023-04-07T02:29:48;99956.34;;;3.16;100.00
41830;BME280;38614;43.472;23.936;2023-04-07T02:32:38;99947.38;;;3.15;100.00
41830;BME280;38614;43.472;23.936;2023-04-07T02:35:26;99949.00;;;3.17;100.00
41830;BME280;38614;43.472;23.936;2023-04-07T02:38:14;99948.09;;;2.99;100.00
41830;BME280;38614;43.472;23.936;2023-04-07T02:41:01;99909.16;;;2.84;100.00
41830;BME280;38614;43.472;23.936;2023-04-07T02:43:49;99951.72;;;3.17;100.00
41830;BME280;38614;43.472;23.936;2023-04-07T02:46:37;99955.44;;;3.21;100.00
41830;BME280;38614;43.472;23.936;2023-04-07T02:49:25;99956.91;;;3.27;100.00
41830;BME280;38614;43.472;23.936;2023-04-07T02:52:14;99946.22;;;3.08;100.00
41830;BME280;38614;43.472;23.936;2023-04-07T02:55:02;99960.44;;;3.27;100.00
41830;BME280;38614;43.472;23.936;2023-04-07T02:57:50;99948.84;;;3.22;100.00
41830;BME280;38614;43.472;23.936;2023-04-07T03:00:52;99951.13;;;3.28;100.00
41830;BME280;38614;43.472;23.936;2023-04-07T03:03:44;99963.22;;;3.36;100.00
41830;BME280;38614;43.472;23.936;2023-04-07T03:06:42;99940.97;;;3.20;100.00
41830;BME280;38614;43.472;23.936;2023-04-07T03:09:33;99967.28;;;3.47;100.00
41830;BME280;38614;43.472;23.936;2023-04-07T03:12:21;99970.63;;;3.44;100.00
41830;BME280;38614;43.472;23.936;2023-04-07T03:15:09;99972.72;;;3.47;100.00
41830;BME280;38614;43.472;23.936;2023-04-07T03:18:01;99973.75;;;3.68;100.00
41830;BME280;38614;43.472;23.936;2023-04-07T03:20:49;99973.09;;;3.63;100.00
41830;BME280;38614;43.472;23.936;2023-04-07T03:23:39;99962.00;;;3.59;100.00
41830;BME280;38614;43.472;23.936;2023-04-07T03:26:27;99974.72;;;3.64;100.00
41830;BME280;38614;43.472;23.936;2023-04-07T03:29:16;99993.50;;;3.57;100.00
41830;BME280;38614;43.472;23.936;2023-04-07T03:32:04;99990.72;;;3.48;100.00
41830;BME280;38614;43.472;23.936;2023-04-07T03:34:52;99985.59;;;3.47;100.00
41830;BME280;38614;43.472;23.936;2023-04-07T03:37:40;99992.47;;;3.35;100.00
41830;BME280;38614;43.472;23.936;2023-04-07T03:40:33;99987.56;;;3.24;100.00
41830;BME280;38614;43.472;23.936;2023-04-07T03:43:22;100004.75;;;3.24;100.00
41830;BME280;38614;43.472;23.936;2023-04-07T03:46:10;100003.19;;;3.32;100.00
41830;BME280;38614;43.472;23.936;2023-04-07T03:48:58;99888.09;;;2.45;100.00
41830;BME280;38614;43.472;23.936;2023-04-07T03:51:45;99994.19;;;3.31;100.00
41830;BME280;38614;43.472;23.936;2023-04-07T03:54:38;100008.34;;;3.33;100.00
41830;BME280;38614;43.472;23.936;2023-04-07T03:57:28;100001.16;;;3.15;100.00
41830;BME280;38614;43.472;23.936;2023-04-07T04:00:16;100006.50;;;3.20;100.00
41830;BME280;38614;43.472;23.936;2023-04-07T04:03:14;100015.16;;;3.53;100.00
41830;BME280;38614;43.472;23.936;2023-04-07T04:06:20;100020.31;;;3.46;100.00
41830;BME280;38614;43.472;23.936;2023-04-07T04:09:09;100017.38;;;3.42;100.00
41830;BME280;38614;43.472;23.936;2023-04-07T04:12:03;100017.38;;;3.42;100.00
41830;BME280;38614;43.472;23.936;2023-04-07T04:14:54;99994.47;;;3.21;100.00
41830;BME280;38614;43.472;23.936;2023-04-07T04:17:42;100016.19;;;3.26;100.00
41830;BME280;38614;43.472;23.936;2023-04-07T04:20:31;100028.25;;;3.34;100.00
41830;BME280;38614;43.472;23.936;2023-04-07T04:23:19;100018.91;;;3.26;100.00
41830;BME280;38614;43.472;23.936;2023-04-07T04:26:10;100034.53;;;3.34;100.00
41830;BME280;38614;43.472;23.936;2023-04-07T04:29:01;100037.34;;;3.21;100.00
41830;BME280;38614;43.472;23.936;2023-04-07T04:31:49;100046.63;;;3.11;100.00
41830;BME280;38614;43.472;23.936;2023-04-07T04:34:39;100018.44;;;3.02;100.00
41830;BME280;38614;43.472;23.936;2023-04-07T04:37:31;100044.31;;;3.27;100.00
41830;BME280;38614;43.472;23.936;2023-04-07T04:40:20;100006.09;;;3.04;100.00
41830;BME280;38614;43.472;23.936;2023-04-07T04:43:10;100054.91;;;3.28;100.00
41830;BME280;38614;43.472;23.936;2023-04-07T04:46:00;100045.38;;;3.17;100.00
41830;BME280;38614;43.472;23.936;2023-04-07T04:48:52;100058.03;;;3.44;100.00
41830;BME280;38614;43.472;23.936;2023-04-07T04:51:42;100032.97;;;3.42;100.00
41830;BME280;38614;43.472;23.936;2023-04-07T04:54:34;100056.75;;;3.81;100.00
41830;BME280;38614;43.472;23.936;2023-04-07T04:57:23;100065.66;;;3.95;100.00
41830;BME280;38614;43.472;23.936;2023-04-07T05:00:11;100071.31;;;4.08;100.00
41830;BME280;38614;43.472;23.936;2023-04-07T05:03:01;100072.44;;;4.07;100.00
41830;BME280;38614;43.472;23.936;2023-04-07T05:05:54;100045.56;;;3.91;100.00
41830;BME280;38614;43.472;23.936;2023-04-07T05:08:42;100064.44;;;4.10;100.00
41830;BME280;38614;43.472;23.936;2023-04-07T05:11:31;100078.13;;;4.19;100.00
41830;BME280;38614;43.472;23.936;2023-04-07T05:14:19;100065.44;;;4.32;100.00
41830;BME280;38614;43.472;23.936;2023-04-07T05:17:13;100071.81;;;4.18;100.00
41830;BME280;38614;43.472;23.936;2023-04-07T05:20:01;100085.53;;;4.27;100.00
41830;BME280;38614;43.472;23.936;2023-04-07T05:22:54;100080.84;;;4.27;100.00
41830;BME280;38614;43.472;23.936;2023-04-07T05:25:49;100064.13;;;4.20;100.00
41830;BME280;38614;43.472;23.936;2023-04-07T05:28:38;100081.88;;;4.49;100.00
41830;BME280;38614;43.472;23.936;2023-04-07T05:31:33;100076.22;;;4.54;100.00
41830;BME280;38614;43.472;23.936;2023-04-07T05:34:28;100087.03;;;4.59;100.00
41830;BME280;38614;43.472;23.936;2023-04-07T05:37:16;100078.66;;;4.64;100.00
41830;BME280;38614;43.472;23.936;2023-04-07T05:40:05;100068.38;;;4.70;100.00
41830;BME280;38614;43.472;23.936;2023-04-07T05:42:56;100088.81;;;4.90;100.00
41830;BME280;38614;43.472;23.936;2023-04-07T05:45:44;100085.94;;;4.95;100.00
41830;BME280;38614;43.472;23.936;2023-04-07T05:48:33;100093.16;;;4.99;100.00
41830;BME280;38614;43.472;23.936;2023-04-07T05:51:22;100085.75;;;5.08;100.00
41830;BME280;38614;43.472;23.936;2023-04-07T05:54:12;100067.22;;;5.14;100.00
41830;BME280;38614;43.472;23.936;2023-04-07T05:57:01;100066.09;;;5.15;100.00
41830;BME280;38614;43.472;23.936;2023-04-07T05:59:52;100095.97;;;5.63;100.00
41830;BME280;38614;43.472;23.936;2023-04-07T06:02:43;100086.47;;;5.61;100.00
41830;BME280;38614;43.472;23.936;2023-04-07T06:05:36;100092.03;;;5.82;100.00
41830;BME280;38614;43.472;23.936;2023-04-07T06:08:31;100092.16;;;5.85;100.00
41830;BME280;38614;43.472;23.936;2023-04-07T06:11:19;100097.06;;;6.18;100.00
41830;BME280;38614;43.472;23.936;2023-04-07T06:14:08;100105.91;;;6.23;100.00
41830;BME280;38614;43.472;23.936;2023-04-07T06:16:55;100081.78;;;6.08;100.00
41830;BME280;38614;43.472;23.936;2023-04-07T06:19:44;100096.50;;;6.33;100.00
41830;BME280;38614;43.472;23.936;2023-04-07T06:22:31;100101.50;;;6.31;100.00
41830;BME280;38614;43.472;23.936;2023-04-07T06:25:19;100105.22;;;6.56;100.00
41830;BME280;38614;43.472;23.936;2023-04-07T06:28:07;100069.88;;;6.34;100.00
41830;BME280;38614;43.472;23.936;2023-04-07T06:30:55;100102.16;;;6.57;100.00
41830;BME280;38614;43.472;23.936;2023-04-07T06:33:45;100112.84;;;6.50;100.00
41830;BME280;38614;43.472;23.936;2023-04-07T06:36:33;100104.78;;;6.54;100.00
41830;BME280;38614;43.472;23.936;2023-04-07T06:39:22;100109.34;;;6.71;100.00
41830;BME280;38614;43.472;23.936;2023-04-07T06:42:09;100071.66;;;6.50;100.00
41830;BME280;38614;43.472;23.936;2023-04-07T06:45:08;100120.72;;;7.02;100.00
41830;BME280;38614;43.472;23.936;2023-04-07T06:47:56;100119.19;;;7.47;100.00
41830;BME280;38614;43.472;23.936;2023-04-07T06:50:51;100105.66;;;7.41;100.00
41830;BME280;38614;43.472;23.936;2023-04-07T06:53:38;100089.75;;;7.14;100.00
41830;BME280;38614;43.472;23.936;2023-04-07T06:56:27;100121.19;;;7.58;100.00
41830;BME280;38614;43.472;23.936;2023-04-07T06:59:15;100081.97;;;7.49;100.00
41830;BME280;38614;43.472;23.936;2023-04-07T07:02:03;100113.56;;;7.43;100.00
41830;BME280;38614;43.472;23.936;2023-04-07T07:04:51;100133.97;;;7.87;100.00
41830;BME280;38614;43.472;23.936;2023-04-07T07:07:39;100129.81;;;7.81;100.00
41830;BME280;38614;43.472;23.936;2023-04-07T07:10:27;100132.84;;;8.00;100.00
41830;BME280;38614;43.472;23.936;2023-04-07T07:13:14;100130.66;;;7.94;100.00
41830;BME280;38614;43.472;23.936;2023-04-07T07:16:03;100108.56;;;7.57;100.00
41830;BME280;38614;43.472;23.936;2023-04-07T07:18:50;100149.47;;;8.16;100.00
41830;BME280;38614;43.472;23.936;2023-04-07T07:21:38;100148.69;;;8.65;100.00
41830;BME280;38614;43.472;23.936;2023-04-07T07:24:26;100119.88;;;8.74;100.00
41830;BME280;38614;43.472;23.936;2023-04-07T07:27:15;100151.75;;;9.00;100.00
41830;BME280;38614;43.472;23.936;2023-04-07T07:30:03;100151.75;;;9.00;100.00
41830;BME280;38614;43.472;23.936;2023-04-07T07:32:52;100143.25;;;9.05;100.00
41830;BME280;38614;43.472;23.936;2023-04-07T07:35:40;100150.53;;;8.85;100.00
41830;BME280;38614;43.472;23.936;2023-04-07T07:38:28;100165.72;;;9.19;100.00
41830;BME280;38614;43.472;23.936;2023-04-07T07:41:16;100168.31;;;9.28;100.00
41830;BME280;38614;43.472;23.936;2023-04-07T07:44:03;100168.59;;;9.23;100.00
41830;BME280;38614;43.472;23.936;2023-04-07T07:46:51;100169.13;;;8.64;100.00
41830;BME280;38614;43.472;23.936;2023-04-07T07:49:39;100169.22;;;8.31;100.00
41830;BME280;38614;43.472;23.936;2023-04-07T07:52:28;100175.47;;;8.52;100.00
41830;BME280;38614;43.472;23.936;2023-04-07T07:55:16;100166.84;;;8.29;100.00
41830;BME280;38614;43.472;23.936;2023-04-07T07:58:03;100185.44;;;8.44;100.00
41830;BME280;38614;43.472;23.936;2023-04-07T08:00:51;100189.03;;;8.57;100.00
41830;BME280;38614;43.472;23.936;2023-04-07T08:03:39;100173.75;;;8.47;100.00
41830;BME280;38614;43.472;23.936;2023-04-07T08:06:27;100195.47;;;8.16;100.00
41830;BME280;38614;43.472;23.936;2023-04-07T08:09:18;100185.72;;;8.06;100.00
41830;BME280;38614;43.472;23.936;2023-04-07T08:12:06;100165.56;;;7.81;100.00
41830;BME280;38614;43.472;23.936;2023-04-07T08:14:54;100194.50;;;7.87;100.00
41830;BME280;38614;43.472;23.936;2023-04-07T08:17:42;100193.81;;;7.90;100.00
41830;BME280;38614;43.472;23.936;2023-04-07T08:20:32;100195.47;;;8.16;100.00
41830;BME280;38614;43.472;23.936;2023-04-07T08:23:20;100207.97;;;8.13;100.00
41830;BME280;38614;43.472;23.936;2023-04-07T08:26:08;100200.94;;;7.91;100.00
41830;BME280;38614;43.472;23.936;2023-04-07T08:28:56;100206.91;;;7.93;100.00
41830;BME280;38614;43.472;23.936;2023-04-07T08:31:44;100208.34;;;7.79;100.00
41830;BME280;38614;43.472;23.936;2023-04-07T08:34:32;100144.53;;;7.19;100.00
41830;BME280;38614;43.472;23.936;2023-04-07T08:37:20;100215.81;;;7.57;100.00
41830;BME280;38614;43.472;23.936;2023-04-07T08:40:09;100202.50;;;7.80;100.00
41830;BME280;38614;43.472;23.936;2023-04-07T08:43:00;100208.34;;;8.24;100.00
41830;BME280;38614;43.472;23.936;2023-04-07T08:46:09;100206.38;;;8.24;100.00
41830;BME280;38614;43.472;23.936;2023-04-07T08:49:21;100207.59;;;8.84;100.00
41830;BME280;38614;43.472;23.936;2023-04-07T08:52:24;100196.00;;;8.79;100.00
41830;BME280;38614;43.472;23.936;2023-04-07T08:55:18;100214.25;;;8.71;100.00
41830;BME280;38614;43.472;23.936;2023-04-07T08:58:09;100210.09;;;8.90;100.00
41830;BME280;38614;43.472;23.936;2023-04-07T09:00:59;100208.41;;;8.85;100.00
41830;BME280;38614;43.472;23.936;2023-04-07T09:03:48;100167.31;;;8.68;100.00
41830;BME280;38614;43.472;23.936;2023-04-07T09:06:37;100209.19;;;8.98;100.00
41830;BME280;38614;43.472;23.936;2023-04-07T09:09:24;100217.09;;;8.99;100.00
41830;BME280;38614;43.472;23.936;2023-04-07T09:12:12;100206.09;;;8.87;100.00
41830;BME280;38614;43.472;23.936;2023-04-07T09:15:00;100202.06;;;8.97;100.00
41830;BME280;38614;43.472;23.936;2023-04-07T09:17:51;100219.25;;;9.18;100.00
41830;BME280;38614;43.472;23.936;2023-04-07T09:23:44;100200.44;;;9.48;100.00
41830;BME280;38614;43.472;23.936;2023-04-07T09:26:32;100223.22;;;9.73;100.00
41830;BME280;38614;43.472;23.936;2023-04-07T09:29:22;100228.44;;;9.90;100.00
41830;BME280;38614;43.472;23.936;2023-04-07T09:32:10;100198.03;;;9.75;100.00
41830;BME280;38614;43.472;23.936;2023-04-07T09:34:59;100211.13;;;10.21;100.00
41830;BME280;38614;43.472;23.936;2023-04-07T09:38:05;100218.22;;;10.35;100.00
41830;BME280;38614;43.472;23.936;2023-04-07T09:41:13;100219.91;;;10.55;100.00
41830;BME280;38614;43.472;23.936;2023-04-07T09:44:02;100209.03;;;10.62;100.00
41830;BME280;38614;43.472;23.936;2023-04-07T09:46:52;100212.72;;;10.85;99.23
41830;BME280;38614;43.472;23.936;2023-04-07T09:49:51;100226.13;;;10.83;100.00
41830;BME280;38614;43.472;23.936;2023-04-07T09:52:52;100213.56;;;11.05;97.42
41830;BME280;38614;43.472;23.936;2023-04-07T09:55:41;100195.69;;;10.99;95.82
41830;BME280;38614;43.472;23.936;2023-04-07T09:58:29;100213.91;;;11.20;96.98
41830;BME280;38614;43.472;23.936;2023-04-07T10:01:18;100214.69;;;10.69;99.24
41830;BME280;38614;43.472;23.936;2023-04-07T10:04:06;100227.50;;;10.42;96.27
41830;BME280;38614;43.472;23.936;2023-04-07T10:06:58;100225.50;;;10.27;97.14
41830;BME280;38614;43.472;23.936;2023-04-07T10:09:46;100205.66;;;9.65;94.28
41830;BME280;38614;43.472;23.936;2023-04-07T10:12:36;100228.78;;;10.33;97.52
41830;BME280;38614;43.472;23.936;2023-04-07T10:15:24;100221.75;;;10.67;93.00
41830;BME280;38614;43.472;23.936;2023-04-07T10:18:13;100214.19;;;11.14;95.70
41830;BME280;38614;43.472;23.936;2023-04-07T10:21:07;100239.50;;;11.17;94.08
41830;BME280;38614;43.472;23.936;2023-04-07T10:27:30;100222.81;;;10.78;97.28
41830;BME280;38614;43.472;23.936;2023-04-07T10:30:28;100224.09;;;10.80;97.16
41830;BME280;38614;43.472;23.936;2023-04-07T10:33:17;100223.00;;;10.69;97.82
41830;BME280;38614;43.472;23.936;2023-04-07T10:36:06;100234.44;;;10.52;95.72
41830;BME280;38614;43.472;23.936;2023-04-07T10:41:54;100230.59;;;10.25;100.00
41830;BME280;38614;43.472;23.936;2023-04-07T10:47:30;100233.69;;;9.95;100.00
41830;BME280;38614;43.472;23.936;2023-04-07T10:50:22;100234.03;;;9.66;100.00
41830;BME280;38614;43.472;23.936;2023-04-07T10:53:12;100226.19;;;9.52;100.00
41830;BME280;38614;43.472;23.936;2023-04-07T10:56:00;100236.72;;;9.62;100.00
41830;BME280;38614;43.472;23.936;2023-04-07T10:59:17;100241.56;;;9.53;100.00
41830;BME280;38614;43.472;23.936;2023-04-07T11:05:01;100243.38;;;9.61;100.00
41830;BME280;38614;43.472;23.936;2023-04-07T11:07:52;100257.78;;;9.55;100.00
41830;BME280;38614;43.472;23.936;2023-04-07T11:10:46;100252.47;;;9.62;100.00
41830;BME280;38614;43.472;23.936;2023-04-07T11:13:41;100253.91;;;9.43;100.00
41830;BME280;38614;43.472;23.936;2023-04-07T11:16:41;100248.84;;;9.46;100.00
41830;BME280;38614;43.472;23.936;2023-04-07T11:19:29;100258.31;;;9.32;100.00
41830;BME280;38614;43.472;23.936;2023-04-07T11:22:18;100266.38;;;9.01;100.00
41830;BME280;38614;43.472;23.936;2023-04-07T11:25:20;100257.84;;;9.18;100.00
41830;BME280;38614;43.472;23.936;2023-04-07T11:28:10;100246.50;;;8.95;100.00
41830;BME280;38614;43.472;23.936;2023-04-07T11:30:59;100263.50;;;8.73;100.00
41830;BME280;38614;43.472;23.936;2023-04-07T11:33:57;100256.72;;;9.07;100.00
41830;BME280;38614;43.472;23.936;2023-04-07T11:36:45;100261.22;;;8.87;100.00
41830;BME280;38614;43.472;23.936;2023-04-07T11:39:33;100252.13;;;8.62;100.00
41830;BME280;38614;43.472;23.936;2023-04-07T11:42:35;100253.97;;;8.70;100.00
41830;BME280;38614;43.472;23.936;2023-04-07T11:45:23;100251.22;;;8.70;100.00
41830;BME280;38614;43.472;23.936;2023-04-07T11:48:28;100252.13;;;8.74;100.00
41830;BME280;38614;43.472;23.936;2023-04-07T11:51:21;100262.78;;;8.64;100.00
41830;BME280;38614;43.472;23.936;2023-04-07T11:54:12;100224.59;;;8.38;100.00
41830;BME280;38614;43.472;23.936;2023-04-07T11:57:00;100265.22;;;8.90;100.00
41830;BME280;38614;43.472;23.936;2023-04-07T11:59:48;100219.53;;;8.76;100.00
41830;BME280;38614;43.472;23.936;2023-04-07T12:02:36;100273.75;;;8.84;100.00
41830;BME280;38614;43.472;23.936;2023-04-07T12:05:24;100248.13;;;8.60;100.00
41830;BME280;38614;43.472;23.936;2023-04-07T12:08:13;100256.50;;;8.75;100.00
41830;BME280;38614;43.472;23.936;2023-04-07T12:11:06;100257.88;;;8.81;100.00
41830;BME280;38614;43.472;23.936;2023-04-07T12:13:57;100252.13;;;8.74;100.00
41830;BME280;38614;43.472;23.936;2023-04-07T12:16:45;100253.28;;;8.73;100.00
41830;BME280;38614;43.472;23.936;2023-04-07T12:19:33;100219.75;;;8.59;100.00
41830;BME280;38614;43.472;23.936;2023-04-07T12:22:22;100233.53;;;8.96;100.00
41830;BME280;38614;43.472;23.936;2023-04-07T12:25:10;100253.41;;;8.89;100.00
41830;BME280;38614;43.472;23.936;2023-04-07T12:28:00;100267.19;;;9.13;100.00
41830;BME280;38614;43.472;23.936;2023-04-07T12:30:48;100261.41;;;9.31;100.00
41830;BME280;38614;43.472;23.936;2023-04-07T12:33:38;100269.91;;;9.26;100.00
41830;BME280;38614;43.472;23.936;2023-04-07T12:36:26;100265.09;;;9.23;100.00
41830;BME280;38614;43.472;23.936;2023-04-07T12:39:14;100257.53;;;9.07;100.00
41830;BME280;38614;43.472;23.936;2023-04-07T12:42:02;100266.84;;;9.03;100.00
41830;BME280;38614;43.472;23.936;2023-04-07T12:44:51;100246.28;;;8.88;100.00
41830;BME280;38614;43.472;23.936;2023-04-07T12:47:39;100245.13;;;9.01;100.00
41830;BME280;38614;43.472;23.936;2023-04-07T12:50:28;100242.59;;;9.08;100.00
41830;BME280;38614;43.472;23.936;2023-04-07T12:53:16;100244.47;;;9.45;100.00
41830;BME280;38614;43.472;23.936;2023-04-07T12:56:04;100271.38;;;10.04;100.00
41830;BME280;38614;43.472;23.936;2023-04-07T12:58:52;100272.00;;;10.25;100.00
41830;BME280;38614;43.472;23.936;2023-04-07T13:01:40;100283.47;;;10.71;100.00
41830;BME280;38614;43.472;23.936;2023-04-07T13:04:29;100239.59;;;10.53;100.00
41830;BME280;38614;43.472;23.936;2023-04-07T13:07:17;100283.19;;;10.92;100.00
41830;BME280;38614;43.472;23.936;2023-04-07T13:10:06;100269.00;;;10.46;100.00
41830;BME280;38614;43.472;23.936;2023-04-07T13:12:54;100243.59;;;10.24;100.00
41830;BME280;38614;43.472;23.936;2023-04-07T13:15:42;100241.75;;;10.44;100.00
41830;BME280;38614;43.472;23.936;2023-04-07T13:18:30;100281.31;;;10.20;100.00
41830;BME280;38614;43.472;23.936;2023-04-07T13:21:17;100277.31;;;10.18;100.00
41830;BME280;38614;43.472;23.936;2023-04-07T13:24:25;100290.91;;;10.11;100.00
41830;BME280;38614;43.472;23.936;2023-04-07T13:27:13;100233.00;;;9.70;100.00
41830;BME280;38614;43.472;23.936;2023-04-07T13:30:04;100293.97;;;9.93;100.00
41830;BME280;38614;43.472;23.936;2023-04-07T13:32:52;100279.50;;;9.96;100.00
41830;BME280;38614;43.472;23.936;2023-04-07T13:35:40;100283.38;;;9.95;100.00
41830;BME280;38614;43.472;23.936;2023-04-07T13:38:28;100290.91;;;9.83;100.00
41830;BME280;38614;43.472;23.936;2023-04-07T13:41:16;100283.97;;;9.49;100.00
41830;BME280;38614;43.472;23.936;2023-04-07T13:44:04;100276.00;;;9.07;100.00
41830;BME280;38614;43.472;23.936;2023-04-07T13:46:52;100307.94;;;9.32;100.00
41830;BME280;38614;43.472;23.936;2023-04-07T13:49:40;100301.03;;;9.26;100.00
41830;BME280;38614;43.472;23.936;2023-04-07T13:52:30;100308.88;;;9.12;100.00
41830;BME280;38614;43.472;23.936;2023-04-07T13:55:21;100306.47;;;8.86;100.00
41830;BME280;38614;43.472;23.936;2023-04-07T13:58:09;100300.25;;;8.89;100.00
41830;BME280;38614;43.472;23.936;2023-04-07T14:00:57;100311.94;;;8.74;100.00
41830;BME280;38614;43.472;23.936;2023-04-07T14:03:45;100311.13;;;8.61;100.00
41830;BME280;38614;43.472;23.936;2023-04-07T14:06:33;100310.47;;;8.89;100.00
41830;BME280;38614;43.472;23.936;2023-04-07T14:09:23;100318.84;;;8.80;100.00
41830;BME280;38614;43.472;23.936;2023-04-07T14:12:10;100316.22;;;9.08;100.00
41830;BME280;38614;43.472;23.936;2023-04-07T14:14:58;100313.91;;;9.10;100.00
41830;BME280;38614;43.472;23.936;2023-04-07T14:17:46;100295.53;;;8.90;100.00
41830;BME280;38614;43.472;23.936;2023-04-07T14:20:36;100317.25;;;9.03;100.00
41830;BME280;38614;43.472;23.936;2023-04-07T14:23:24;100294.38;;;8.78;100.00
41830;BME280;38614;43.472;23.936;2023-04-07T14:26:23;100326.84;;;8.61;100.00
41830;BME280;38614;43.472;23.936;2023-04-07T14:29:15;100316.84;;;8.56;100.00
41830;BME280;38614;43.472;23.936;2023-04-07T14:32:03;100312.16;;;8.56;100.00
41830;BME280;38614;43.472;23.936;2023-04-07T14:34:51;100326.91;;;8.85;100.00
41830;BME280;38614;43.472;23.936;2023-04-07T14:37:39;100324.00;;;8.69;100.00
41830;BME280;38614;43.472;23.936;2023-04-07T14:40:27;100331.56;;;8.60;100.00
41830;BME280;38614;43.472;23.936;2023-04-07T14:43:15;100333.44;;;8.35;100.00
41830;BME280;38614;43.472;23.936;2023-04-07T14:46:03;100308.50;;;8.32;100.00
41830;BME280;38614;43.472;23.936;2023-04-07T14:48:50;100337.25;;;8.55;100.00
41830;BME280;38614;43.472;23.936;2023-04-07T14:51:38;100337.88;;;8.61;100.00
41830;BME280;38614;43.472;23.936;2023-04-07T14:54:27;100293.59;;;8.33;100.00
41830;BME280;38614;43.472;23.936;2023-04-07T14:57:15;100336.97;;;8.69;100.00
41830;BME280;38614;43.472;23.936;2023-04-07T15:00:04;100346.81;;;8.57;100.00
41830;BME280;38614;43.472;23.936;2023-04-07T15:02:57;100345.31;;;8.48;100.00
41830;BME280;38614;43.472;23.936;2023-04-07T15:05:46;100359.22;;;8.31;100.00
41830;BME280;38614;43.472;23.936;2023-04-07T15:08:34;100353.97;;;8.17;100.00
41830;BME280;38614;43.472;23.936;2023-04-07T15:11:22;100340.69;;;8.19;100.00
41830;BME280;38614;43.472;23.936;2023-04-07T15:14:11;100359.16;;;7.97;100.00